West Marche, Arkansas
Current Conditions -  °F | °C
As of 10:58 AM on Wednesday 26 Nov 2014 (Local Time) from KLRF Reporting Station
Scattered Clouds Scattered Clouds  
Wind Chill: 39°   Ceiling: Unl
Heat Index: 43°   Visibility: 10mi
Dew Point: 34°   Wind: 7mph
Humidity: 70%   Direction: 240°WSW
Pressure: 30.02"   Gusts: NA
Location:  34.868°N, 92.3217°W
Report Text: KLRF 261658Z AUTO 24006KT 10SM FEW100 SCT150 06/01 A3002 RMK AO2 SLP171 T00630011 $
Loading
Personal Weather Stations






























Interactive Weather Map New forecast layout! Learn more

10-Day Weather Forecast

Advertisements
Track Severe Weather on mobile